Time;durP1;ratioP1;P1;durP2;ratioP2;P2;SDS_P1;SDS_P2;PMS_P1;PMS_P2;Temp;Humidity;BMP_temperature;BMP_pressure;BME280_temperature;BME280_humidity;BME280_pressure;Samples;Min_cycle;Max_cycle;Signal;HPM_P1;HPM_P2
2022/12/02 00:01:26;;;;;;;72.07;22.80;;;;;;;3.40;84.84;102053.56;5110429;28;20508;-67
2022/12/02 00:03:54;;;;;;;62.83;22.27;;;;;;;3.56;85.32;102058.03;5110069;28;20040;-67
2022/12/02 00:06:28;;;;;;;68.22;23.58;;;;;;;3.50;84.65;102042.59;5109772;28;20077;-67
2022/12/02 00:09:02;;;;;;;71.85;22.77;;;;;;;3.68;84.84;102040.84;5109133;28;20105;-67
2022/12/02 00:11:30;;;;;;;65.18;23.00;;;;;;;3.78;83.85;102042.94;5110322;28;20051;-67
2022/12/02 00:13:59;;;;;;;67.60;23.63;;;;;;;3.88;83.67;102039.81;5110055;28;20040;-67
2022/12/02 00:16:26;;;;;;;67.97;23.25;;;;;;;3.83;83.18;102042.69;5109596;28;20054;-67
2022/12/02 00:18:54;;;;;;;73.20;24.45;;;;;;;3.64;83.25;102042.78;5110053;28;20044;-67
2022/12/02 00:21:21;;;;;;;63.03;23.05;;;;;;;3.59;84.63;102036.91;5108558;28;20040;-67
2022/12/02 00:23:48;;;;;;;69.32;24.73;;;;;;;3.45;84.25;102035.78;5110012;28;20052;-67
2022/12/02 00:26:15;;;;;;;66.38;23.85;;;;;;;3.51;85.38;102044.28;5109935;28;20114;-67
2022/12/02 00:28:42;;;;;;;70.25;24.33;;;;;;;3.39;84.78;102038.72;5100139;28;20186;-67
2022/12/02 00:31:09;;;;;;;69.03;23.33;;;;;;;3.52;84.80;102035.50;5096286;28;20051;-67
2022/12/02 00:33:35;;;;;;;76.55;25.55;;;;;;;3.50;84.74;102032.13;5095832;28;20443;-67
2022/12/02 00:36:02;;;;;;;71.20;24.20;;;;;;;3.50;84.89;102032.94;5094881;28;20048;-67
2022/12/02 00:38:29;;;;;;;66.47;23.65;;;;;;;3.51;85.16;102039.03;5095813;28;20048;-67
2022/12/02 00:40:55;;;;;;;67.68;23.80;;;;;;;3.57;84.90;102033.50;5096333;28;20055;-67
2022/12/02 00:46:40;;;;;;;68.05;23.95;;;;;;;3.74;84.29;102025.63;5095838;28;20040;-66
2022/12/02 00:48:55;;;;;;;68.25;24.92;;;;;;;3.64;84.07;102016.53;5095675;28;20051;-67
2022/12/02 00:51:22;;;;;;;74.15;25.02;;;;;;;3.70;84.59;102016.19;5095906;28;20070;-68
2022/12/02 00:53:49;;;;;;;70.55;24.70;;;;;;;3.64;84.25;102021.78;5095934;28;20044;-67
2022/12/02 00:56:16;;;;;;;74.57;24.65;;;;;;;3.74;84.17;102016.91;5094242;28;20085;-67
2022/12/02 00:58:43;;;;;;;71.05;24.27;;;;;;;3.83;83.73;102016.41;5095697;28;20040;-67
2022/12/02 01:01:10;;;;;;;69.55;23.83;;;;;;;3.80;83.62;102011.31;5095468;28;20057;-66
2022/12/02 01:03:37;;;;;;;68.65;24.35;;;;;;;3.82;83.65;102009.47;5094299;28;20497;-66
2022/12/02 01:06:06;;;;;;;75.95;24.45;;;;;;;3.71;83.37;102006.53;5094368;28;20400;-66
2022/12/02 01:08:33;;;;;;;74.03;25.30;;;;;;;3.57;84.07;102010.72;5094454;28;20044;-67
2022/12/02 01:11:01;;;;;;;77.25;26.70;;;;;;;3.59;84.49;102002.78;5095558;28;20119;-66
2022/12/02 01:13:27;;;;;;;78.68;26.25;;;;;;;3.72;84.54;102006.47;5095398;28;20439;-67
2022/12/02 01:15:54;;;;;;;73.10;25.20;;;;;;;3.71;84.56;102004.78;5095148;28;20040;-66
2022/12/02 01:18:21;;;;;;;77.45;26.83;;;;;;;3.80;84.58;102000.81;5094843;28;20039;-66
2022/12/02 01:20:48;;;;;;;77.13;26.25;;;;;;;3.59;84.14;101995.75;5095363;28;20052;-66
2022/12/02 01:23:16;;;;;;;73.53;25.95;;;;;;;3.49;84.87;101993.66;5094094;28;20048;-67
2022/12/02 01:25:42;;;;;;;81.40;26.33;;;;;;;3.52;84.96;101997.00;5094973;28;20105;-66
2022/12/02 01:28:09;;;;;;;75.75;24.83;;;;;;;3.68;84.39;102001.47;5093727;28;20044;-66
2022/12/02 01:30:36;;;;;;;73.00;26.10;;;;;;;3.71;84.87;101998.66;5093790;28;20044;-66
2022/12/02 01:33:03;;;;;;;68.90;23.38;;;;;;;3.65;83.54;101991.97;5093632;28;20139;-66
2022/12/02 01:35:30;;;;;;;67.70;24.90;;;;;;;3.51;84.56;101995.31;5095102;28;20050;-67
2022/12/02 01:37:56;;;;;;;58.60;21.65;;;;;;;3.40;84.17;101998.47;5095057;28;20044;-66
2022/12/02 01:40:24;;;;;;;60.10;23.02;;;;;;;3.48;84.62;101998.06;5094021;28;20040;-67
2022/12/02 01:42:51;;;;;;;65.45;23.42;;;;;;;3.56;84.04;101997.69;5094948;28;20043;-66
2022/12/02 01:45:18;;;;;;;64.32;23.38;;;;;;;3.67;83.93;101997.97;5095004;28;20486;-66
2022/12/02 01:47:45;;;;;;;53.83;20.98;;;;;;;3.52;83.29;102004.03;5093191;28;20496;-67
2022/12/02 01:50:13;;;;;;;62.00;20.48;;;;;;;3.53;83.78;101989.97;5093708;28;20048;-66
2022/12/02 01:52:42;;;;;;;52.67;20.70;;;;;;;3.57;83.02;101992.38;5094513;28;20036;-66
2022/12/02 01:55:13;;;;;;;53.97;20.83;;;;;;;3.52;83.10;101998.78;5094950;28;20044;-66
2022/12/02 01:57:40;;;;;;;50.97;19.87;;;;;;;3.48;83.34;101989.38;5094271;28;20032;-66
2022/12/02 02:00:07;;;;;;;52.47;20.65;;;;;;;3.53;83.51;101997.84;5093569;28;20312;-66
2022/12/02 02:02:40;;;;;;;47.80;19.20;;;;;;;3.32;83.71;101999.78;5094413;28;20090;-66
2022/12/02 02:05:14;;;;;;;56.28;20.13;;;;;;;3.43;83.41;102000.91;5076031;28;20493;-66
2022/12/02 02:07:45;;;;;;;48.42;18.30;;;;;;;3.41;83.61;102000.16;5094360;28;20548;-66
2022/12/02 02:10:13;;;;;;;49.88;18.85;;;;;;;3.45;83.63;101992.97;5094223;28;20044;-66
2022/12/02 02:12:40;;;;;;;52.17;19.30;;;;;;;3.46;83.82;101998.16;5094431;28;20043;-66
2022/12/02 02:15:09;;;;;;;50.97;19.38;;;;;;;3.54;83.24;101996.91;5092990;28;20126;-66
2022/12/02 02:17:36;;;;;;;49.72;19.73;;;;;;;3.50;83.19;101996.22;5093861;28;20059;-66
2022/12/02 02:20:08;;;;;;;42.63;17.27;;;;;;;3.57;82.51;101992.38;5094239;28;20055;-66
2022/12/02 02:22:40;;;;;;;49.55;18.70;;;;;;;3.36;82.98;101981.16;5094160;28;20072;-66
2022/12/02 02:25:11;;;;;;;47.90;18.38;;;;;;;3.61;83.24;101982.56;5094013;28;20494;-66
2022/12/02 02:27:44;;;;;;;48.10;18.58;;;;;;;3.45;82.99;101974.59;5094105;28;20040;-66
2022/12/02 02:30:12;;;;;;;56.38;18.60;;;;;;;3.53;83.15;101972.47;5094068;28;20044;-66
2022/12/02 02:32:39;;;;;;;43.45;18.38;;;;;;;3.65;82.58;101955.22;5093743;28;20059;-66
2022/12/02 02:35:07;;;;;;;48.10;18.75;;;;;;;3.54;82.83;101968.91;5093985;28;20482;-66
2022/12/02 02:37:34;;;;;;;54.30;18.75;;;;;;;3.54;82.31;101966.28;5093863;28;20044;-66
2022/12/02 02:40:01;;;;;;;52.42;18.63;;;;;;;3.49;83.05;101955.16;5093942;28;20126;-66
2022/12/02 02:42:29;;;;;;;48.83;17.73;;;;;;;3.59;82.92;101953.78;5093832;28;20379;-66
2022/12/02 02:44:57;;;;;;;56.83;19.65;;;;;;;3.63;83.94;101954.47;5093218;28;20398;-66
2022/12/02 02:47:25;;;;;;;54.42;19.70;;;;;;;3.45;83.31;101949.22;5093756;28;20032;-66
2022/12/02 02:49:52;;;;;;;52.15;18.88;;;;;;;3.65;83.03;101950.81;5093444;28;20464;-66
2022/12/02 02:52:18;;;;;;;44.38;18.10;;;;;;;3.71;82.54;101957.56;5093439;28;20054;-66
2022/12/02 02:54:46;;;;;;;47.80;19.05;;;;;;;3.66;82.48;101943.81;5093670;28;20120;-67
2022/12/02 02:57:13;;;;;;;51.90;18.70;;;;;;;3.73;82.80;101945.19;5093413;28;20477;-67
2022/12/02 02:59:41;;;;;;;44.38;17.90;;;;;;;3.82;82.46;101944.69;5093681;28;20048;-67
2022/12/02 03:02:10;;;;;;;48.25;18.80;;;;;;;3.69;82.70;101945.41;5093500;28;20051;-67
2022/12/02 03:04:38;;;;;;;56.95;20.52;;;;;;;3.55;82.91;101947.00;5093326;28;20036;-67
2022/12/02 03:07:06;;;;;;;53.40;18.70;;;;;;;3.41;83.49;101952.09;5092601;28;20040;-67
2022/12/02 03:09:33;;;;;;;52.88;19.20;;;;;;;3.44;84.02;101946.69;5093487;28;20113;-67
2022/12/02 03:12:01;;;;;;;49.80;19.25;;;;;;;3.28;84.32;101948.41;4990704;28;20393;-65
2022/12/02 03:14:28;;;;;;;61.15;20.05;;;;;;;3.27;84.46;101939.66;5093630;28;20047;-67
2022/12/02 03:16:56;;;;;;;49.38;19.30;;;;;;;3.39;84.58;101940.84;5092997;28;20087;-68
2022/12/02 03:19:23;;;;;;;53.25;19.45;;;;;;;3.50;84.20;101935.03;5093016;28;20592;-68
2022/12/02 03:21:50;;;;;;;54.15;19.40;;;;;;;3.56;84.72;101937.34;5093217;28;20452;-67
2022/12/02 03:24:17;;;;;;;50.40;19.75;;;;;;;3.50;83.72;101930.63;5093313;28;20048;-67
2022/12/02 03:26:44;;;;;;;54.28;20.63;;;;;;;3.50;84.22;101935.88;5093484;28;20131;-68
2022/12/02 03:29:13;;;;;;;53.38;20.70;;;;;;;3.63;84.07;101928.22;5092835;28;20050;-66
2022/12/02 03:31:40;;;;;;;58.35;20.58;;;;;;;3.66;83.58;101930.69;5093431;28;20555;-66
2022/12/02 03:34:09;;;;;;;56.80;21.38;;;;;;;3.63;83.95;101926.44;5092856;28;20068;-66
2022/12/02 03:36:36;;;;;;;56.92;21.67;;;;;;;3.56;83.37;101921.59;5093148;28;20039;-66
2022/12/02 03:39:04;;;;;;;57.38;23.08;;;;;;;3.48;84.07;101913.28;5092996;28;20040;-66
2022/12/02 03:41:31;;;;;;;56.85;20.95;;;;;;;3.54;84.10;101911.16;5093120;28;20067;-67
2022/12/02 03:43:58;;;;;;;60.60;22.73;;;;;;;3.70;84.12;101905.97;5093112;28;20047;-66
2022/12/02 03:46:26;;;;;;;65.45;24.17;;;;;;;3.75;84.26;101901.34;5091648;28;20432;-67
2022/12/02 03:48:54;;;;;;;63.97;24.05;;;;;;;3.75;83.73;101896.09;5093047;28;20066;-66
2022/12/02 03:51:20;;;;;;;68.03;25.40;;;;;;;3.70;83.80;101895.47;5093101;28;20040;-66
2022/12/02 03:53:47;;;;;;;62.47;24.45;;;;;;;3.80;83.90;101906.31;5092811;28;20040;-66
2022/12/02 03:56:14;;;;;;;66.40;24.50;;;;;;;3.85;84.26;101899.91;5091735;28;20064;-66
2022/12/02 03:58:47;;;;;;;62.88;25.42;;;;;;;3.86;84.20;101900.75;5092462;28;20119;-66
2022/12/02 04:01:15;;;;;;;64.78;24.80;;;;;;;3.71;83.95;101894.56;5093293;28;20048;-66
2022/12/02 04:03:42;;;;;;;70.70;25.83;;;;;;;3.86;84.08;101892.88;5094654;28;20059;-66
2022/12/02 04:06:09;;;;;;;71.15;24.95;;;;;;;3.94;83.69;101895.94;5095960;28;20075;-66
2022/12/02 04:08:36;;;;;;;73.53;25.63;;;;;;;3.78;84.08;101888.06;5096409;28;20441;-66
2022/12/02 04:11:03;;;;;;;77.15;27.20;;;;;;;3.65;84.66;101887.00;5096376;28;20044;-66
2022/12/02 04:13:30;;;;;;;72.40;26.30;;;;;;;3.37;85.93;101890.22;5096846;28;20421;-66
2022/12/02 04:15:57;;;;;;;77.22;25.67;;;;;;;3.44;86.16;101886.34;5094754;28;20036;-66
2022/12/02 04:18:23;;;;;;;76.63;27.33;;;;;;;3.42;86.19;101888.19;5094980;28;20366;-67
2022/12/02 04:20:50;;;;;;;76.03;26.15;;;;;;;3.57;86.44;101878.69;5095098;28;20141;-66
2022/12/02 04:23:18;;;;;;;75.95;26.60;;;;;;;3.64;85.72;101877.44;5095902;28;20093;-66
2022/12/02 04:25:44;;;;;;;70.35;26.05;;;;;;;3.61;85.96;101880.22;5096570;28;20039;-66
2022/12/02 04:28:11;;;;;;;73.72;25.02;;;;;;;3.49;86.54;101878.22;5096002;28;20405;-66
2022/12/02 04:30:38;;;;;;;78.80;26.52;;;;;;;3.73;86.72;101890.06;5096528;28;20071;-66
2022/12/02 04:33:04;;;;;;;71.88;25.90;;;;;;;3.64;85.60;101885.31;5096314;28;20148;-66
2022/12/02 04:35:32;;;;;;;79.28;27.67;;;;;;;3.77;85.57;101881.09;5078183;28;20119;-66
2022/12/02 04:37:58;;;;;;;80.30;26.85;;;;;;;3.65;85.90;101887.00;5094725;28;20044;-66
2022/12/02 04:40:25;;;;;;;78.15;27.42;;;;;;;3.82;85.53;101888.72;5094943;28;20040;-66
2022/12/02 04:42:52;;;;;;;75.15;24.83;;;;;;;3.61;85.48;101877.59;5095008;28;20044;-66
2022/12/02 04:45:19;;;;;;;73.80;25.35;;;;;;;3.58;86.18;101872.50;5094923;28;20047;-66
2022/12/02 04:47:45;;;;;;;80.57;26.08;;;;;;;3.60;86.01;101866.25;5096163;28;20117;-66
2022/12/02 04:50:12;;;;;;;67.32;25.45;;;;;;;3.64;86.11;101872.19;5094472;28;20040;-66
2022/12/02 04:52:39;;;;;;;85.43;26.27;;;;;;;3.71;86.45;101863.06;5095922;28;20044;-66
2022/12/02 04:55:06;;;;;;;80.65;26.63;;;;;;;3.70;85.92;101863.97;5096022;28;20044;-66
2022/12/02 04:57:32;;;;;;;70.45;24.65;;;;;;;3.74;85.80;101864.66;5095696;28;20044;-65
2022/12/02 04:59:59;;;;;;;79.75;27.27;;;;;;;3.81;85.74;101861.63;5096065;28;20059;-67
2022/12/02 05:02:26;;;;;;;80.40;25.58;;;;;;;3.79;86.66;101860.84;5095536;28;20036;-67
2022/12/02 05:04:52;;;;;;;79.40;25.85;;;;;;;3.76;85.49;101853.13;5094113;28;20048;-66
2022/12/02 05:07:20;;;;;;;79.15;26.00;;;;;;;3.73;85.60;101852.47;5094923;28;20040;-67
2022/12/02 05:09:46;;;;;;;76.03;25.65;;;;;;;3.69;86.00;101853.56;5095865;28;20119;-67
2022/12/02 05:12:13;;;;;;;77.82;26.08;;;;;;;3.78;86.48;101846.06;5077653;28;20040;-67
2022/12/02 05:14:40;;;;;;;75.43;24.08;;;;;;;3.80;85.99;101843.31;5095256;28;20040;-67
2022/12/02 05:17:07;;;;;;;75.03;24.33;;;;;;;3.61;85.95;101846.94;5094995;28;20097;-67
2022/12/02 05:19:33;;;;;;;73.90;24.00;;;;;;;3.73;85.99;101849.84;5094962;28;20067;-67
2022/12/02 05:22:00;;;;;;;77.40;23.75;;;;;;;3.63;86.21;101847.69;5095512;28;20051;-67
2022/12/02 05:24:27;;;;;;;69.72;24.35;;;;;;;3.61;86.38;101841.69;5093755;28;20050;-67
2022/12/02 05:26:53;;;;;;;78.80;24.42;;;;;;;3.52;86.59;101843.97;5095110;28;20044;-67
2022/12/02 05:29:21;;;;;;;78.47;24.05;;;;;;;3.63;86.95;101842.47;5094984;28;20179;-66
2022/12/02 05:31:47;;;;;;;77.32;23.80;;;;;;;3.61;86.65;101840.84;5095242;28;20066;-67
2022/12/02 05:34:14;;;;;;;80.50;23.63;;;;;;;3.69;86.66;101845.69;5093702;28;20079;-66
2022/12/02 05:36:41;;;;;;;80.70;24.95;;;;;;;3.83;86.34;101840.53;5094997;28;20048;-67
2022/12/02 05:39:08;;;;;;;68.43;23.10;;;;;;;3.83;86.00;101844.00;5095051;28;20331;-67
2022/12/02 05:41:34;;;;;;;67.57;24.23;;;;;;;3.82;85.86;101837.09;5095119;28;20044;-68
2022/12/02 05:44:17;;;;;;;83.38;26.30;;;;;;;3.64;86.77;101844.16;5095128;28;20051;-67
2022/12/02 05:46:44;;;;;;;71.25;25.27;;;;;;;3.55;87.52;101835.94;5093241;28;20040;-68
2022/12/02 05:49:19;;;;;;;77.20;25.00;;;;;;;3.78;87.41;101829.44;5094760;28;20496;-70
2022/12/02 05:52:01;;;;;;;79.53;25.80;;;;;;;3.72;87.21;101829.78;5093865;28;20071;-67
2022/12/02 05:54:28;;;;;;;77.70;24.52;;;;;;;3.54;87.32;101826.38;5094699;28;20135;-66
2022/12/02 05:56:56;;;;;;;74.15;23.00;;;;;;;3.40;87.90;101829.72;5094245;28;20036;-67
2022/12/02 05:59:23;;;;;;;76.30;24.38;;;;;;;3.45;88.21;101827.69;5094577;28;20520;-67
2022/12/02 06:01:53;;;;;;;77.90;24.58;;;;;;;3.60;88.12;101828.66;5094429;28;20047;-67
2022/12/02 06:04:25;;;;;;;79.85;23.73;;;;;;;3.60;87.64;101832.16;5094006;28;20453;-67
2022/12/02 06:06:54;;;;;;;71.97;23.00;;;;;;;3.52;87.64;101834.31;5092511;28;20032;-67
2022/12/02 06:09:26;;;;;;;66.70;22.65;;;;;;;3.62;87.45;101818.91;5094160;28;20074;-67
2022/12/02 06:11:53;;;;;;;63.88;22.35;;;;;;;3.77;87.07;101825.97;5093260;28;20519;-67
2022/12/02 06:14:23;;;;;;;82.72;23.45;;;;;;;3.72;86.69;101819.28;5094342;28;20052;-67
2022/12/02 06:16:58;;;;;;;67.07;22.88;;;;;;;3.60;87.18;101828.66;5093835;28;20047;-67
2022/12/02 06:19:29;;;;;;;66.70;22.65;;;;;;;3.65;87.26;101831.88;5092733;28;20453;-67
2022/12/02 06:21:59;;;;;;;75.32;23.30;;;;;;;3.47;88.38;101838.94;5092882;28;20051;-70
2022/12/02 06:24:29;;;;;;;77.45;22.88;;;;;;;3.41;88.78;101829.63;5094466;28;20044;-68
2022/12/02 06:26:58;;;;;;;72.15;21.83;;;;;;;3.37;88.56;101824.66;5093319;28;20054;-68
2022/12/02 06:29:27;;;;;;;75.75;23.60;;;;;;;3.50;88.78;101827.47;5092727;28;20078;-67
2022/12/02 06:31:55;;;;;;;71.72;21.90;;;;;;;3.60;89.00;101824.28;5093465;28;20040;-67
2022/12/02 06:34:33;;;;;;;77.45;23.10;;;;;;;3.64;88.94;101820.53;5093787;28;20093;-67
2022/12/02 06:37:19;;;;;;;73.97;23.70;;;;;;;3.70;88.30;101826.41;5092677;28;20861;-67
2022/12/02 06:39:52;;;;;;;72.93;22.05;;;;;;;3.78;88.51;101821.56;5093882;28;20400;-68
2022/12/02 06:42:39;;;;;;;70.22;23.52;;;;;;;3.67;88.86;101822.16;5092907;28;20118;-67
2022/12/02 06:45:21;;;;;;;77.70;23.10;;;;;;;3.56;89.04;101832.38;5092084;28;20447;-67
2022/12/02 06:50:34;;;;;;;67.88;21.50;;;;;;;3.45;89.39;101822.44;5070087;28;20358;-67
2022/12/02 06:53:31;;;;;;;71.65;21.92;;;;;;;3.51;89.58;101830.00;5068882;28;20073;-67
2022/12/02 06:56:04;;;;;;;72.03;22.20;;;;;;;3.53;89.86;101832.53;5070201;28;20049;-67
2022/12/02 06:58:44;;;;;;;68.68;21.98;;;;;;;3.58;89.95;101823.47;5068839;28;20494;-67
2022/12/02 07:01:21;;;;;;;76.93;20.70;;;;;;;3.28;90.33;101820.72;5069127;28;20056;-67
2022/12/02 07:06:50;;;;;;;76.82;22.42;;;;;;;3.46;90.17;101821.53;5105990;27;20379;-66
2022/12/02 07:09:19;;;;;;;;;;;;;;;3.34;90.51;101822.19;5091192;28;20090;-66
2022/12/02 07:11:49;;;;;;;69.55;20.85;;;;;;;3.25;90.37;101813.84;5090208;28;19920;-66
2022/12/02 07:14:37;;;;;;;75.93;21.98;;;;;;;3.30;90.79;101818.03;5089343;28;20490;-66
2022/12/02 07:17:34;;;;;;;74.85;20.88;;;;;;;3.46;89.95;101813.66;5089320;28;20097;-66
2022/12/02 07:20:21;;;;;;;70.13;20.33;;;;;;;3.63;89.58;101816.22;5090322;28;20489;-66
2022/12/02 07:22:53;;;;;;;71.60;21.23;;;;;;;3.77;89.34;101820.72;5090199;28;20101;-66
2022/12/02 07:25:28;;;;;;;;;;;;;;;3.69;88.52;101828.16;5091059;28;20068;-66
2022/12/02 07:27:55;;;;;;;69.88;19.38;;;;;;;3.85;88.28;101822.94;5090345;28;20281;-67
2022/12/02 07:30:29;;;;;;;76.43;21.60;;;;;;;3.85;87.95;101821.13;5105473;28;20043;-66
2022/12/02 07:32:58;;;;;;;65.78;21.02;;;;;;;3.87;87.71;101828.09;5090394;28;20424;-66
2022/12/02 07:35:25;;;;;;;69.28;22.27;;;;;;;3.73;88.49;101829.72;5089851;28;20090;-66
2022/12/02 07:37:52;;;;;;;78.38;23.75;;;;;;;3.79;88.68;101831.16;5090295;28;20441;-66
2022/12/02 07:40:19;;;;;;;91.22;24.38;;;;;;;3.71;89.38;101830.69;5089841;28;20472;-66
2022/12/02 07:42:46;;;;;;;88.38;25.55;;;;;;;3.80;89.60;101828.44;5105780;28;20047;-67
2022/12/02 07:45:16;;;;;;;85.22;25.85;;;;;;;3.55;90.21;101826.28;5090015;28;20374;-67
2022/12/02 07:47:44;;;;;;;92.10;27.63;;;;;;;3.55;90.87;101823.66;5089769;28;20046;-67
2022/12/02 07:50:12;;;;;;;88.15;26.77;;;;;;;3.72;90.63;101817.50;5090127;28;20048;-67
2022/12/02 07:52:39;;;;;;;91.13;25.95;;;;;;;3.87;91.06;101818.44;5109481;28;20128;-67
2022/12/02 07:55:07;;;;;;;105.10;28.42;;;;;;;3.77;90.05;101815.47;5109424;28;20440;-68
2022/12/02 07:57:34;;;;;;;99.15;27.27;;;;;;;3.80;90.02;101817.06;5109745;28;20040;-67
2022/12/02 08:00:03;;;;;;;86.15;26.55;;;;;;;3.77;89.94;101806.75;5092285;28;20070;-67
2022/12/02 08:02:49;;;;;;;87.32;26.10;;;;;;;3.79;89.69;101815.41;5090446;27;20166;-67
2022/12/02 08:05:16;;;;;;;88.55;26.45;;;;;;;3.68;89.82;101809.91;5063084;28;20035;-67
2022/12/02 08:07:42;;;;;;;105.38;29.17;;;;;;;3.70;90.55;101813.28;5084377;28;20478;-67
2022/12/02 08:10:10;;;;;;;101.32;28.20;;;;;;;3.61;90.91;101809.38;5085775;28;20085;-67
2022/12/02 08:12:38;;;;;;;109.80;30.33;;;;;;;3.72;91.15;101809.63;5090344;28;20047;-67
2022/12/02 08:15:07;;;;;;;105.03;29.33;;;;;;;3.77;91.71;101807.59;5072757;28;20040;-67
2022/12/02 08:17:34;;;;;;;110.32;29.48;;;;;;;3.79;91.27;101810.16;5091762;28;20396;-65
2022/12/02 08:20:02;;;;;;;112.65;30.80;;;;;;;3.87;90.69;101809.72;5086451;28;20035;-69
2022/12/02 08:22:29;;;;;;;96.53;27.80;;;;;;;3.81;90.15;101811.75;5082181;28;20033;-68
2022/12/02 08:24:55;;;;;;;107.90;32.08;;;;;;;3.77;90.86;101809.38;5077837;28;20040;-67
2022/12/02 08:27:23;;;;;;;108.95;31.55;;;;;;;3.67;91.05;101811.66;5042202;28;20043;-67
2022/12/02 08:29:51;;;;;;;117.28;30.67;;;;;;;3.82;91.18;101808.19;5058348;28;20921;-67
2022/12/02 08:32:19;;;;;;;118.35;31.23;;;;;;;3.78;90.99;101814.56;5081673;28;20043;-67
2022/12/02 08:34:46;;;;;;;120.20;30.50;;;;;;;3.73;92.11;101807.84;5058737;28;20055;-67
2022/12/02 08:37:13;;;;;;;114.72;30.02;;;;;;;3.78;91.41;101817.19;5076933;28;20047;-67
2022/12/02 08:39:41;;;;;;;104.50;29.20;;;;;;;3.75;91.49;101801.59;5059784;28;20036;-68
2022/12/02 08:42:08;;;;;;;108.22;30.17;;;;;;;3.74;91.55;101801.69;5101343;28;20032;-68
2022/12/02 08:44:34;;;;;;;113.40;30.42;;;;;;;3.65;91.50;101806.47;5085491;28;20037;-68
2022/12/02 08:47:01;;;;;;;102.78;29.10;;;;;;;3.72;91.49;101814.03;5108823;28;20032;-68
2022/12/02 08:49:28;;;;;;;117.07;30.00;;;;;;;3.83;91.36;101806.41;5087298;28;20045;-68
2022/12/02 08:51:55;;;;;;;96.57;27.23;;;;;;;3.96;90.20;101814.47;5088364;28;20032;-68
2022/12/02 08:54:22;;;;;;;89.95;26.77;;;;;;;4.06;89.82;101813.03;5080003;28;20042;-68
2022/12/02 08:56:48;;;;;;;88.95;26.45;;;;;;;3.92;88.80;101812.94;5081099;28;20103;-68
2022/12/02 08:59:15;;;;;;;81.57;25.75;;;;;;;3.74;88.62;101810.38;5074758;28;20044;-67
2022/12/02 09:01:42;;;;;;;72.68;23.00;;;;;;;3.73;88.66;101810.47;5071479;28;20063;-67
2022/12/02 09:04:08;;;;;;;75.18;24.08;;;;;;;3.86;89.52;101814.13;5082746;28;20397;-67
2022/12/02 09:06:35;;;;;;;86.97;26.85;;;;;;;3.81;89.08;101814.38;5055300;28;20051;-67
2022/12/02 09:09:04;;;;;;;92.90;28.13;;;;;;;4.03;88.81;101816.66;5072736;28;20116;-67
2022/12/02 09:11:31;;;;;;;80.28;26.50;;;;;;;3.92;88.20;101820.81;5078744;28;20064;-67
2022/12/02 09:13:59;;;;;;;85.82;26.25;;;;;;;4.03;88.74;101821.06;5082209;28;20036;-67
2022/12/02 09:16:25;;;;;;;83.90;25.65;;;;;;;3.96;88.47;101811.84;5067562;28;20116;-67
2022/12/02 09:18:54;;;;;;;78.40;24.92;;;;;;;3.88;88.43;101821.94;5051040;28;21300;-67
2022/12/02 09:21:21;;;;;;;72.82;25.25;;;;;;;3.93;88.83;101814.63;5073463;28;20062;-67
2022/12/02 09:23:48;;;;;;;70.82;24.65;;;;;;;4.10;88.14;101818.97;5084381;28;20555;-67
2022/12/02 09:26:16;;;;;;;65.07;22.42;;;;;;;4.08;87.98;101820.81;5056963;28;20406;-67
2022/12/02 09:28:43;;;;;;;72.05;23.58;;;;;;;3.99;86.68;101816.94;5069734;28;20052;-67
2022/12/02 09:31:09;;;;;;;63.45;22.10;;;;;;;4.04;87.05;101822.78;5066454;28;20048;-67
2022/12/02 09:33:37;;;;;;;62.83;20.98;;;;;;;4.10;86.06;101816.34;5071382;28;20037;-68
2022/12/02 09:36:04;;;;;;;56.05;19.58;;;;;;;3.91;85.94;101816.50;5048348;28;20045;-67
2022/12/02 09:38:31;;;;;;;59.15;20.17;;;;;;;3.92;85.72;101808.53;5059114;28;20493;-66
2022/12/02 09:40:59;;;;;;;60.03;20.08;;;;;;;4.01;86.79;101812.44;5042481;28;20048;-68
2022/12/02 09:43:28;;;;;;;60.92;20.02;;;;;;;3.93;85.96;101807.63;5051045;28;20082;-67
2022/12/02 09:45:56;;;;;;;55.70;20.23;;;;;;;4.13;86.29;101811.75;5041239;28;20037;-68
2022/12/02 09:48:22;;;;;;;59.90;20.67;;;;;;;4.12;85.33;101807.44;5058461;28;20044;-67
2022/12/02 09:50:50;;;;;;;65.05;20.15;;;;;;;4.02;85.53;101806.22;5055694;28;20698;-68
2022/12/02 09:53:19;;;;;;;68.20;22.23;;;;;;;4.12;86.46;101803.97;5041011;28;20400;-68
2022/12/02 09:55:45;;;;;;;78.43;24.60;;;;;;;4.07;86.19;101801.56;5034116;28;21188;-68
2022/12/02 09:58:16;;;;;;;62.03;22.70;;;;;;;4.10;85.91;101806.66;5045080;28;20057;-66
2022/12/02 10:00:44;;;;;;;;;;;;;;;3.98;86.03;101808.22;5053115;28;20062;-67
2022/12/02 10:03:15;;;;;;;54.92;19.52;;;;;;;4.06;85.50;101804.28;5061058;28;20068;-66
2022/12/02 10:05:44;;;;;;;56.72;21.08;;;;;;;4.13;85.27;101809.13;5088153;28;20036;-66
2022/12/02 10:08:16;;;;;;;60.00;21.88;;;;;;;4.27;85.46;101797.81;5079967;28;20044;-66
2022/12/02 10:10:44;;;;;;;57.22;21.33;;;;;;;4.29;84.18;101806.47;5069562;28;20052;-68
2022/12/02 10:13:14;;;;;;;68.47;23.58;;;;;;;4.34;84.71;101806.22;5082716;28;20120;-66
2022/12/02 10:15:42;;;;;;;62.30;22.92;;;;;;;4.35;85.17;101794.78;5085492;28;20044;-67
2022/12/02 10:18:27;;;;;;;63.17;23.70;;;;;;;4.29;85.11;101803.84;5093185;28;20047;-67
2022/12/02 10:20:55;;;;;;;62.20;21.75;;;;;;;4.22;85.65;101798.09;5070353;28;20523;-67
2022/12/02 10:23:23;;;;;;;52.85;21.73;;;;;;;4.31;84.80;101798.50;5075633;28;20386;-66
2022/12/02 10:26:08;;;;;;;54.17;20.55;;;;;;;4.25;84.92;101799.69;5090791;28;20032;-66
2022/12/02 10:28:36;;;;;;;56.30;20.80;;;;;;;4.15;84.32;101801.16;5104953;28;20075;-67
2022/12/02 10:31:11;;;;;;;51.28;20.55;;;;;;;4.02;84.89;101799.22;5098526;28;20032;-66
2022/12/02 10:33:49;;;;;;;48.13;19.63;;;;;;;4.14;84.18;101800.31;5097010;27;20121;-66
2022/12/02 10:36:36;;;;;;;45.72;19.27;;;;;;;3.90;84.39;101802.53;5072808;28;20056;-67
2022/12/02 10:39:25;;;;;;;48.22;18.15;;;;;;;3.78;85.20;101800.56;5078135;28;20043;-68
2022/12/02 10:42:12;;;;;;;50.83;19.63;;;;;;;3.76;85.62;101792.78;5078112;28;20032;-66
2022/12/02 10:44:42;;;;;;;55.13;21.08;;;;;;;3.90;85.89;101784.16;5101783;28;20473;-66
2022/12/02 10:47:20;;;;;;;57.70;21.50;;;;;;;3.92;84.78;101787.53;5091815;28;20084;-66
2022/12/02 10:49:56;;;;;;;57.08;21.27;;;;;;;3.93;84.85;101786.63;5088463;28;20570;-66
2022/12/02 10:52:27;;;;;;;51.97;20.95;;;;;;;3.64;86.37;101791.69;5095819;28;20032;-66
2022/12/02 10:54:56;;;;;;;53.92;20.85;;;;;;;3.65;85.93;101785.47;5087837;28;20043;-66
2022/12/02 10:57:27;;;;;;;46.30;17.63;;;;;;;3.68;85.77;101783.66;5055158;28;20567;-66
2022/12/02 10:59:56;;;;;;;48.42;20.23;;;;;;;3.82;85.52;101779.31;5074979;28;20040;-66
2022/12/02 11:02:30;;;;;;;57.80;22.10;;;;;;;3.73;85.92;101771.97;5048142;28;20095;-67
2022/12/02 11:05:08;;;;;;;56.67;21.80;;;;;;;3.68;85.88;101779.25;5054633;28;20045;-67
2022/12/02 11:07:35;;;;;;;57.47;21.85;;;;;;;3.75;85.04;101777.97;5063313;28;20098;-67
2022/12/02 11:10:02;;;;;;;65.82;24.30;;;;;;;3.89;85.78;101774.56;5059179;28;20048;-66
2022/12/02 11:12:33;;;;;;;56.40;22.40;;;;;;;3.90;85.48;101776.28;5022773;28;20044;-67
2022/12/02 11:15:04;;;;;;;51.05;22.67;;;;;;;3.76;85.68;101771.78;5040638;28;20044;-66
2022/12/02 11:17:50;;;;;;;57.00;22.95;;;;;;;3.78;85.91;101772.56;5045736;28;20052;-67
2022/12/02 11:20:36;;;;;;;61.40;23.13;;;;;;;3.72;85.62;101770.25;5072143;28;20208;-67
2022/12/02 11:23:13;;;;;;;58.30;22.80;;;;;;;3.69;85.70;101769.59;5016478;28;20033;-66
2022/12/02 11:28:32;;;;;;;60.72;23.63;;;;;;;3.68;86.22;101763.50;5084425;27;20399;-67
2022/12/02 11:31:20;;;;;;;53.47;22.48;;;;;;;3.63;85.88;101765.50;5069444;28;20148;-67
2022/12/02 11:36:36;;;;;;;52.53;22.48;;;;;;;3.56;86.00;101758.91;5083214;27;20506;-67
2022/12/02 11:39:07;;;;;;;46.95;20.40;;;;;;;3.56;85.55;101758.91;5061959;28;20033;-67
2022/12/02 11:44:27;;;;;;;50.47;21.30;;;;;;;3.76;85.22;101753.41;5036614;28;20385;-67